This is the latest recevied weather packets stored in our database for station/object N3TJJ-11. If no packets are shown the sender has not sent any weather packets the latest 10 day(s).
| Time | Temp. | Humidity | Pressure | Rain* | Wind** | Luminosity | Snow |
|---|---|---|---|---|---|---|---|
| 1777507438 | 8.89° C | 89% | 1006.4 hPa | 1.02 mm | - | - | - |
| 1777506837 | 8.89° C | 89% | 1006.5 hPa | 1.27 mm | - | - | - |
| 1777506237 | 9.44° C | 89% | 1006.6 hPa | 1.52 mm | - | - | - |
| 1777505637 | 9.44° C | 88% | 1006.3 hPa | 1.52 mm | - | - | - |
| 1777505037 | 9.44° C | 88% | 1005.9 hPa | 1.02 mm | - | - | - |
| 1777504437 | 9.44° C | 87% | 1006.6 hPa | 1.02 mm | - | - | - |
| 1777503837 | 10° C | 86% | 1007 hPa | 0.76 mm | - | - | - |
| 1777503237 | 10° C | 85% | 1007.4 hPa | 0.51 mm | - | - | - |
| 1777502637 | 10.56° C | 82% | 1007.4 hPa | 0.25 mm | - | - | - |
| 1777502037 | 10.56° C | 82% | 1007.6 hPa | 0 mm | - | - | - |
| 1777501437 | 10.56° C | 82% | 1007.1 hPa | 0 mm | - | - | - |
| 1777500837 | 11.11° C | 84% | 1007 hPa | 0 mm | - | - | - |
| 1777500239 | 11.11° C | 85% | 1006.9 hPa | 0 mm | - | - | - |
| 1777499637 | 11.11° C | 85% | 1007 hPa | 0 mm | - | - | - |
| 1777499037 | 11.11° C | 86% | 1007.1 hPa | 0 mm | - | - | - |
| 1777498438 | 11.11° C | 86% | 1007.1 hPa | 0 mm | - | - | - |
| 1777497841 | 11.11° C | 87% | 1007.2 hPa | 1.52 mm | - | - | - |
| 1777497245 | 11.11° C | 87% | 1007.4 hPa | 2.29 mm | - | - | - |
| 1777496638 | 11.67° C | 87% | 1007.4 hPa | 2.29 mm | - | - | - |
| 1777496037 | 11.67° C | 87% | 1007.6 hPa | 2.29 mm | - | - | - |
| 1777495437 | 11.67° C | 86% | 1007.8 hPa | 2.29 mm | - | - | - |
| 1777494838 | 11.67° C | 83% | 1008 hPa | 2.29 mm | - | - | - |
| 1777494251 | 12.22° C | 77% | 1008.4 hPa | 0.76 mm | - | - | - |
| 1777493637 | 13.33° C | 71% | 1008 hPa | 0 mm | - | - | - |
| 1777493038 | 13.33° C | 72% | 1007.8 hPa | 0 mm | - | - | - |
* Rain latest hour (hover to see other rain measurements)
** Current wind speed in m/s (hover to see current wind gust speed)